sensor_id;sensor_type;location;lat;lon;timestamp;P1;durP1;ratioP1;P2;durP2;ratioP2
22851;SDS011;11592;45.460;9.240;2023-07-20T00:00:06;18.65;;;6.45;;
22851;SDS011;11592;45.460;9.240;2023-07-20T00:02:33;14.80;;;6.00;;
22851;SDS011;11592;45.460;9.240;2023-07-20T00:05:00;15.32;;;5.30;;
22851;SDS011;11592;45.460;9.240;2023-07-20T00:07:27;16.48;;;6.05;;
22851;SDS011;11592;45.460;9.240;2023-07-20T00:09:55;11.95;;;5.20;;
22851;SDS011;11592;45.460;9.240;2023-07-20T00:12:21;13.05;;;5.13;;
22851;SDS011;11592;45.460;9.240;2023-07-20T00:14:48;19.15;;;6.22;;
22851;SDS011;11592;45.460;9.240;2023-07-20T00:17:15;17.02;;;6.10;;
22851;SDS011;11592;45.460;9.240;2023-07-20T00:19:42;9.63;;;4.97;;
22851;SDS011;11592;45.460;9.240;2023-07-20T00:22:09;16.85;;;5.03;;
22851;SDS011;11592;45.460;9.240;2023-07-20T00:24:36;12.15;;;4.63;;
22851;SDS011;11592;45.460;9.240;2023-07-20T00:27:02;11.60;;;5.18;;
22851;SDS011;11592;45.460;9.240;2023-07-20T00:29:29;15.20;;;5.82;;
22851;SDS011;11592;45.460;9.240;2023-07-20T00:31:56;16.88;;;5.70;;
22851;SDS011;11592;45.460;9.240;2023-07-20T00:34:24;13.80;;;5.32;;
22851;SDS011;11592;45.460;9.240;2023-07-20T00:36:51;12.57;;;5.35;;
22851;SDS011;11592;45.460;9.240;2023-07-20T00:39:18;11.60;;;5.15;;
22851;SDS011;11592;45.460;9.240;2023-07-20T00:41:45;12.90;;;6.53;;
22851;SDS011;11592;45.460;9.240;2023-07-20T00:44:11;11.63;;;5.15;;
22851;SDS011;11592;45.460;9.240;2023-07-20T00:46:38;12.07;;;5.95;;
22851;SDS011;11592;45.460;9.240;2023-07-20T00:49:08;11.85;;;6.10;;
22851;SDS011;11592;45.460;9.240;2023-07-20T00:51:35;13.95;;;6.13;;
22851;SDS011;11592;45.460;9.240;2023-07-20T00:54:01;16.33;;;6.25;;
22851;SDS011;11592;45.460;9.240;2023-07-20T00:56:29;16.63;;;6.25;;
22851;SDS011;11592;45.460;9.240;2023-07-20T00:58:55;11.20;;;5.85;;
22851;SDS011;11592;45.460;9.240;2023-07-20T01:01:23;8.48;;;5.65;;
22851;SDS011;11592;45.460;9.240;2023-07-20T01:03:50;12.32;;;4.88;;
22851;SDS011;11592;45.460;9.240;2023-07-20T01:14:31;16.65;;;6.30;;
22851;SDS011;11592;45.460;9.240;2023-07-20T01:16:59;12.68;;;5.45;;
22851;SDS011;11592;45.460;9.240;2023-07-20T01:19:25;11.68;;;6.68;;
22851;SDS011;11592;45.460;9.240;2023-07-20T01:22:03;9.00;;;5.60;;
22851;SDS011;11592;45.460;9.240;2023-07-20T01:24:52;15.00;;;6.30;;
22851;SDS011;11592;45.460;9.240;2023-07-20T01:32:46;16.85;;;6.93;;
22851;SDS011;11592;45.460;9.240;2023-07-20T01:35:14;11.88;;;6.28;;
22851;SDS011;11592;45.460;9.240;2023-07-20T01:37:44;13.93;;;6.07;;
22851;SDS011;11592;45.460;9.240;2023-07-20T01:40:13;16.77;;;6.93;;
22851;SDS011;11592;45.460;9.240;2023-07-20T01:42:48;12.15;;;6.10;;
22851;SDS011;11592;45.460;9.240;2023-07-20T01:45:15;12.63;;;6.70;;
22851;SDS011;11592;45.460;9.240;2023-07-20T01:47:42;12.80;;;6.28;;
22851;SDS011;11592;45.460;9.240;2023-07-20T01:50:09;12.73;;;6.55;;
22851;SDS011;11592;45.460;9.240;2023-07-20T01:52:36;14.30;;;6.28;;
22851;SDS011;11592;45.460;9.240;2023-07-20T01:55:03;13.10;;;7.47;;
22851;SDS011;11592;45.460;9.240;2023-07-20T01:57:30;11.90;;;6.07;;
22851;SDS011;11592;45.460;9.240;2023-07-20T01:59:57;13.43;;;6.75;;
22851;SDS011;11592;45.460;9.240;2023-07-20T02:02:26;14.75;;;6.85;;
22851;SDS011;11592;45.460;9.240;2023-07-20T02:04:54;17.92;;;7.35;;
22851;SDS011;11592;45.460;9.240;2023-07-20T02:07:21;13.90;;;7.25;;
22851;SDS011;11592;45.460;9.240;2023-07-20T02:09:48;15.88;;;7.72;;
22851;SDS011;11592;45.460;9.240;2023-07-20T02:12:14;17.30;;;7.45;;
22851;SDS011;11592;45.460;9.240;2023-07-20T02:14:41;13.80;;;7.97;;
22851;SDS011;11592;45.460;9.240;2023-07-20T02:17:08;17.50;;;8.77;;
22851;SDS011;11592;45.460;9.240;2023-07-20T02:19:37;14.52;;;7.40;;
22851;SDS011;11592;45.460;9.240;2023-07-20T02:22:04;14.27;;;8.00;;
22851;SDS011;11592;45.460;9.240;2023-07-20T02:24:33;13.10;;;7.88;;
22851;SDS011;11592;45.460;9.240;2023-07-20T02:27:00;16.52;;;8.45;;
22851;SDS011;11592;45.460;9.240;2023-07-20T02:29:26;17.05;;;8.98;;
22851;SDS011;11592;45.460;9.240;2023-07-20T02:31:54;14.02;;;8.40;;
22851;SDS011;11592;45.460;9.240;2023-07-20T02:34:20;24.52;;;8.95;;
22851;SDS011;11592;45.460;9.240;2023-07-20T02:36:47;20.60;;;8.82;;
22851;SDS011;11592;45.460;9.240;2023-07-20T02:39:14;19.48;;;8.75;;
22851;SDS011;11592;45.460;9.240;2023-07-20T02:41:41;15.48;;;9.13;;
22851;SDS011;11592;45.460;9.240;2023-07-20T02:44:08;16.75;;;9.32;;
22851;SDS011;11592;45.460;9.240;2023-07-20T02:46:35;17.75;;;8.65;;
22851;SDS011;11592;45.460;9.240;2023-07-20T02:49:01;16.95;;;8.60;;
22851;SDS011;11592;45.460;9.240;2023-07-20T02:51:28;16.63;;;9.18;;
22851;SDS011;11592;45.460;9.240;2023-07-20T02:53:56;19.23;;;9.65;;
22851;SDS011;11592;45.460;9.240;2023-07-20T02:56:22;16.88;;;8.77;;
22851;SDS011;11592;45.460;9.240;2023-07-20T02:58:50;15.65;;;8.98;;
22851;SDS011;11592;45.460;9.240;2023-07-20T03:01:17;15.55;;;9.05;;
22851;SDS011;11592;45.460;9.240;2023-07-20T03:03:44;18.92;;;9.35;;
22851;SDS011;11592;45.460;9.240;2023-07-20T03:06:14;15.82;;;8.77;;
22851;SDS011;11592;45.460;9.240;2023-07-20T03:08:42;14.57;;;9.55;;
22851;SDS011;11592;45.460;9.240;2023-07-20T03:11:14;18.52;;;9.45;;
22851;SDS011;11592;45.460;9.240;2023-07-20T03:13:42;15.80;;;8.73;;
22851;SDS011;11592;45.460;9.240;2023-07-20T03:16:10;14.77;;;8.85;;
22851;SDS011;11592;45.460;9.240;2023-07-20T03:18:38;14.15;;;8.02;;
22851;SDS011;11592;45.460;9.240;2023-07-20T03:21:05;16.23;;;8.18;;
22851;SDS011;11592;45.460;9.240;2023-07-20T03:23:33;16.60;;;9.00;;
22851;SDS011;11592;45.460;9.240;2023-07-20T03:26:00;23.42;;;10.82;;
22851;SDS011;11592;45.460;9.240;2023-07-20T03:28:27;13.50;;;8.80;;
22851;SDS011;11592;45.460;9.240;2023-07-20T03:30:56;13.77;;;8.90;;
22851;SDS011;11592;45.460;9.240;2023-07-20T03:33:28;14.90;;;8.68;;
22851;SDS011;11592;45.460;9.240;2023-07-20T03:35:55;14.07;;;8.73;;
22851;SDS011;11592;45.460;9.240;2023-07-20T03:38:23;18.98;;;9.63;;
22851;SDS011;11592;45.460;9.240;2023-07-20T03:40:57;18.42;;;9.77;;
22851;SDS011;11592;45.460;9.240;2023-07-20T03:43:26;18.55;;;9.02;;
22851;SDS011;11592;45.460;9.240;2023-07-20T03:45:54;17.23;;;8.90;;
22851;SDS011;11592;45.460;9.240;2023-07-20T03:48:22;17.60;;;9.95;;
22851;SDS011;11592;45.460;9.240;2023-07-20T03:50:50;20.08;;;10.52;;
22851;SDS011;11592;45.460;9.240;2023-07-20T03:53:18;18.38;;;9.88;;
22851;SDS011;11592;45.460;9.240;2023-07-20T03:55:49;19.17;;;10.07;;
22851;SDS011;11592;45.460;9.240;2023-07-20T03:58:17;22.73;;;10.93;;
22851;SDS011;11592;45.460;9.240;2023-07-20T04:00:46;16.88;;;9.40;;
22851;SDS011;11592;45.460;9.240;2023-07-20T04:03:14;18.73;;;10.05;;
22851;SDS011;11592;45.460;9.240;2023-07-20T04:05:42;17.23;;;9.75;;
22851;SDS011;11592;45.460;9.240;2023-07-20T04:08:09;17.13;;;9.55;;
22851;SDS011;11592;45.460;9.240;2023-07-20T04:10:37;18.58;;;9.88;;
22851;SDS011;11592;45.460;9.240;2023-07-20T04:13:05;20.02;;;9.13;;
22851;SDS011;11592;45.460;9.240;2023-07-20T04:15:32;16.85;;;9.88;;
22851;SDS011;11592;45.460;9.240;2023-07-20T04:18:00;18.05;;;10.10;;
22851;SDS011;11592;45.460;9.240;2023-07-20T04:20:27;15.73;;;9.93;;
22851;SDS011;11592;45.460;9.240;2023-07-20T04:22:54;14.45;;;9.27;;
22851;SDS011;11592;45.460;9.240;2023-07-20T04:25:21;16.70;;;10.32;;
22851;SDS011;11592;45.460;9.240;2023-07-20T04:27:48;15.20;;;9.00;;
22851;SDS011;11592;45.460;9.240;2023-07-20T04:30:16;14.57;;;9.60;;
22851;SDS011;11592;45.460;9.240;2023-07-20T04:32:46;16.17;;;9.38;;
22851;SDS011;11592;45.460;9.240;2023-07-20T04:38:19;18.77;;;8.98;;
22851;SDS011;11592;45.460;9.240;2023-07-20T04:40:47;14.85;;;9.30;;
22851;SDS011;11592;45.460;9.240;2023-07-20T04:43:15;13.13;;;8.20;;
22851;SDS011;11592;45.460;9.240;2023-07-20T04:45:43;17.27;;;8.93;;
22851;SDS011;11592;45.460;9.240;2023-07-20T04:48:10;12.30;;;8.30;;
22851;SDS011;11592;45.460;9.240;2023-07-20T04:50:42;13.77;;;8.27;;
22851;SDS011;11592;45.460;9.240;2023-07-20T04:53:11;15.20;;;9.13;;
22851;SDS011;11592;45.460;9.240;2023-07-20T04:55:39;14.48;;;8.43;;
22851;SDS011;11592;45.460;9.240;2023-07-20T04:58:06;13.98;;;8.00;;
22851;SDS011;11592;45.460;9.240;2023-07-20T05:00:33;14.88;;;8.70;;
22851;SDS011;11592;45.460;9.240;2023-07-20T05:03:01;18.75;;;9.00;;
22851;SDS011;11592;45.460;9.240;2023-07-20T05:05:28;11.82;;;8.10;;
22851;SDS011;11592;45.460;9.240;2023-07-20T05:07:54;14.80;;;7.80;;
22851;SDS011;11592;45.460;9.240;2023-07-20T05:10:21;16.13;;;9.05;;
22851;SDS011;11592;45.460;9.240;2023-07-20T05:12:49;16.77;;;9.10;;
22851;SDS011;11592;45.460;9.240;2023-07-20T05:15:16;17.75;;;9.25;;
22851;SDS011;11592;45.460;9.240;2023-07-20T05:17:42;17.15;;;8.95;;
22851;SDS011;11592;45.460;9.240;2023-07-20T05:20:09;16.00;;;9.02;;
22851;SDS011;11592;45.460;9.240;2023-07-20T05:22:36;21.55;;;9.18;;
22851;SDS011;11592;45.460;9.240;2023-07-20T05:25:07;18.02;;;8.75;;
22851;SDS011;11592;45.460;9.240;2023-07-20T05:27:36;15.50;;;8.90;;
22851;SDS011;11592;45.460;9.240;2023-07-20T05:30:04;17.50;;;9.10;;
22851;SDS011;11592;45.460;9.240;2023-07-20T05:32:31;16.15;;;9.48;;
22851;SDS011;11592;45.460;9.240;2023-07-20T05:34:58;15.68;;;8.07;;
22851;SDS011;11592;45.460;9.240;2023-07-20T05:37:25;18.60;;;8.18;;
22851;SDS011;11592;45.460;9.240;2023-07-20T05:39:52;13.23;;;8.82;;
22851;SDS011;11592;45.460;9.240;2023-07-20T05:42:18;18.92;;;9.73;;
22851;SDS011;11592;45.460;9.240;2023-07-20T05:44:45;13.90;;;8.73;;
22851;SDS011;11592;45.460;9.240;2023-07-20T05:47:14;15.00;;;8.45;;
22851;SDS011;11592;45.460;9.240;2023-07-20T05:49:41;15.38;;;8.55;;
22851;SDS011;11592;45.460;9.240;2023-07-20T05:52:08;15.07;;;9.07;;
22851;SDS011;11592;45.460;9.240;2023-07-20T05:54:35;14.23;;;7.80;;
22851;SDS011;11592;45.460;9.240;2023-07-20T05:57:01;14.88;;;8.23;;
22851;SDS011;11592;45.460;9.240;2023-07-20T05:59:28;15.60;;;9.00;;
22851;SDS011;11592;45.460;9.240;2023-07-20T06:01:55;14.27;;;8.40;;
22851;SDS011;11592;45.460;9.240;2023-07-20T06:04:22;13.15;;;8.20;;
22851;SDS011;11592;45.460;9.240;2023-07-20T06:06:49;15.13;;;7.63;;
22851;SDS011;11592;45.460;9.240;2023-07-20T06:09:16;13.43;;;8.05;;
22851;SDS011;11592;45.460;9.240;2023-07-20T06:11:43;11.85;;;8.55;;
22851;SDS011;11592;45.460;9.240;2023-07-20T06:14:10;17.52;;;8.05;;
22851;SDS011;11592;45.460;9.240;2023-07-20T06:16:37;12.45;;;8.10;;
22851;SDS011;11592;45.460;9.240;2023-07-20T06:19:04;15.55;;;7.28;;
22851;SDS011;11592;45.460;9.240;2023-07-20T06:21:30;15.77;;;8.70;;
22851;SDS011;11592;45.460;9.240;2023-07-20T06:23:57;15.20;;;8.32;;
22851;SDS011;11592;45.460;9.240;2023-07-20T06:26:25;13.88;;;8.20;;
22851;SDS011;11592;45.460;9.240;2023-07-20T06:28:52;16.65;;;8.75;;
22851;SDS011;11592;45.460;9.240;2023-07-20T06:31:19;17.58;;;8.30;;
22851;SDS011;11592;45.460;9.240;2023-07-20T06:33:46;11.23;;;6.82;;
22851;SDS011;11592;45.460;9.240;2023-07-20T06:36:13;17.90;;;8.23;;
22851;SDS011;11592;45.460;9.240;2023-07-20T06:38:40;18.02;;;9.18;;
22851;SDS011;11592;45.460;9.240;2023-07-20T06:41:27;17.08;;;7.55;;
22851;SDS011;11592;45.460;9.240;2023-07-20T06:43:57;16.80;;;7.90;;
22851;SDS011;11592;45.460;9.240;2023-07-20T06:46:27;18.75;;;7.55;;
22851;SDS011;11592;45.460;9.240;2023-07-20T06:48:54;13.20;;;7.25;;
22851;SDS011;11592;45.460;9.240;2023-07-20T06:51:24;13.55;;;7.32;;
22851;SDS011;11592;45.460;9.240;2023-07-20T06:53:52;18.35;;;7.95;;
22851;SDS011;11592;45.460;9.240;2023-07-20T06:56:18;21.08;;;9.30;;
22851;SDS011;11592;45.460;9.240;2023-07-20T06:58:49;20.85;;;8.63;;
22851;SDS011;11592;45.460;9.240;2023-07-20T07:01:16;13.25;;;7.90;;
22851;SDS011;11592;45.460;9.240;2023-07-20T07:03:43;16.50;;;8.52;;
22851;SDS011;11592;45.460;9.240;2023-07-20T07:06:10;19.08;;;8.38;;
22851;SDS011;11592;45.460;9.240;2023-07-20T07:08:37;15.75;;;8.13;;
22851;SDS011;11592;45.460;9.240;2023-07-20T07:11:04;11.00;;;6.63;;
22851;SDS011;11592;45.460;9.240;2023-07-20T07:13:31;16.60;;;8.70;;
22851;SDS011;11592;45.460;9.240;2023-07-20T07:15:58;15.25;;;8.35;;
22851;SDS011;11592;45.460;9.240;2023-07-20T07:18:25;14.02;;;6.60;;
22851;SDS011;11592;45.460;9.240;2023-07-20T07:20:53;20.58;;;9.25;;
22851;SDS011;11592;45.460;9.240;2023-07-20T07:23:20;21.40;;;9.10;;
22851;SDS011;11592;45.460;9.240;2023-07-20T07:25:47;17.48;;;8.50;;
22851;SDS011;11592;45.460;9.240;2023-07-20T07:28:14;18.27;;;8.73;;
22851;SDS011;11592;45.460;9.240;2023-07-20T07:30:41;17.55;;;7.90;;
22851;SDS011;11592;45.460;9.240;2023-07-20T07:33:08;15.77;;;9.35;;
22851;SDS011;11592;45.460;9.240;2023-07-20T07:35:36;17.75;;;7.82;;
22851;SDS011;11592;45.460;9.240;2023-07-20T07:38:03;15.27;;;8.05;;
22851;SDS011;11592;45.460;9.240;2023-07-20T07:40:49;15.88;;;7.82;;
22851;SDS011;11592;45.460;9.240;2023-07-20T07:43:17;15.05;;;8.48;;
22851;SDS011;11592;45.460;9.240;2023-07-20T07:45:44;12.23;;;7.95;;
22851;SDS011;11592;45.460;9.240;2023-07-20T07:48:10;13.45;;;7.15;;
22851;SDS011;11592;45.460;9.240;2023-07-20T07:50:38;16.45;;;8.32;;
22851;SDS011;11592;45.460;9.240;2023-07-20T07:53:07;15.95;;;8.77;;
22851;SDS011;11592;45.460;9.240;2023-07-20T07:55:34;22.63;;;9.32;;
22851;SDS011;11592;45.460;9.240;2023-07-20T07:58:02;20.40;;;8.88;;
22851;SDS011;11592;45.460;9.240;2023-07-20T08:00:28;14.60;;;8.32;;
22851;SDS011;11592;45.460;9.240;2023-07-20T08:02:55;19.90;;;9.07;;
22851;SDS011;11592;45.460;9.240;2023-07-20T08:05:22;18.92;;;8.93;;
22851;SDS011;11592;45.460;9.240;2023-07-20T08:07:49;13.35;;;8.68;;
22851;SDS011;11592;45.460;9.240;2023-07-20T08:10:16;14.68;;;8.48;;
22851;SDS011;11592;45.460;9.240;2023-07-20T08:12:43;16.75;;;8.68;;
22851;SDS011;11592;45.460;9.240;2023-07-20T08:15:10;17.88;;;8.38;;
22851;SDS011;11592;45.460;9.240;2023-07-20T08:17:39;23.17;;;9.38;;
22851;SDS011;11592;45.460;9.240;2023-07-20T08:20:07;18.48;;;9.18;;
22851;SDS011;11592;45.460;9.240;2023-07-20T08:22:38;15.25;;;9.85;;
22851;SDS011;11592;45.460;9.240;2023-07-20T08:25:06;14.75;;;7.95;;
22851;SDS011;11592;45.460;9.240;2023-07-20T08:27:33;16.92;;;9.60;;
22851;SDS011;11592;45.460;9.240;2023-07-20T08:30:00;15.15;;;9.32;;
22851;SDS011;11592;45.460;9.240;2023-07-20T08:32:27;19.30;;;8.35;;
22851;SDS011;11592;45.460;9.240;2023-07-20T08:34:54;17.65;;;9.20;;
22851;SDS011;11592;45.460;9.240;2023-07-20T08:37:22;16.95;;;9.27;;
22851;SDS011;11592;45.460;9.240;2023-07-20T08:39:49;11.48;;;7.60;;
22851;SDS011;11592;45.460;9.240;2023-07-20T08:42:16;15.82;;;8.05;;
22851;SDS011;11592;45.460;9.240;2023-07-20T08:44:43;13.77;;;9.18;;
22851;SDS011;11592;45.460;9.240;2023-07-20T08:47:12;22.83;;;10.30;;
22851;SDS011;11592;45.460;9.240;2023-07-20T08:49:42;20.30;;;9.75;;
22851;SDS011;11592;45.460;9.240;2023-07-20T08:52:09;19.42;;;9.88;;
22851;SDS011;11592;45.460;9.240;2023-07-20T08:54:37;20.42;;;9.77;;
22851;SDS011;11592;45.460;9.240;2023-07-20T08:57:04;23.20;;;9.73;;
22851;SDS011;11592;45.460;9.240;2023-07-20T08:59:32;25.30;;;9.25;;
22851;SDS011;11592;45.460;9.240;2023-07-20T09:02:00;17.67;;;9.48;;
22851;SDS011;11592;45.460;9.240;2023-07-20T09:04:30;12.98;;;7.57;;
22851;SDS011;11592;45.460;9.240;2023-07-20T09:06:57;19.27;;;10.43;;
22851;SDS011;11592;45.460;9.240;2023-07-20T09:09:24;18.63;;;9.15;;
22851;SDS011;11592;45.460;9.240;2023-07-20T09:11:51;25.60;;;10.13;;
22851;SDS011;11592;45.460;9.240;2023-07-20T09:14:18;21.10;;;9.23;;
22851;SDS011;11592;45.460;9.240;2023-07-20T09:16:55;18.73;;;9.40;;
22851;SDS011;11592;45.460;9.240;2023-07-20T09:19:22;20.33;;;9.77;;
22851;SDS011;11592;45.460;9.240;2023-07-20T09:21:51;16.05;;;9.10;;
22851;SDS011;11592;45.460;9.240;2023-07-20T09:24:18;18.23;;;7.65;;
22851;SDS011;11592;45.460;9.240;2023-07-20T09:26:47;11.73;;;8.25;;
22851;SDS011;11592;45.460;9.240;2023-07-20T09:29:16;15.98;;;8.10;;
22851;SDS011;11592;45.460;9.240;2023-07-20T09:31:58;20.40;;;7.45;;
22851;SDS011;11592;45.460;9.240;2023-07-20T09:34:28;16.13;;;7.97;;
22851;SDS011;11592;45.460;9.240;2023-07-20T09:37:01;16.35;;;8.00;;
22851;SDS011;11592;45.460;9.240;2023-07-20T09:39:29;11.80;;;7.30;;
22851;SDS011;11592;45.460;9.240;2023-07-20T09:42:00;15.45;;;7.65;;
22851;SDS011;11592;45.460;9.240;2023-07-20T09:44:34;13.55;;;6.88;;
22851;SDS011;11592;45.460;9.240;2023-07-20T09:47:04;10.35;;;7.28;;
22851;SDS011;11592;45.460;9.240;2023-07-20T09:49:32;19.75;;;8.18;;
22851;SDS011;11592;45.460;9.240;2023-07-20T09:52:19;15.25;;;8.07;;
22851;SDS011;11592;45.460;9.240;2023-07-20T09:54:50;15.55;;;7.45;;
22851;SDS011;11592;45.460;9.240;2023-07-20T09:57:17;13.90;;;7.45;;
22851;SDS011;11592;45.460;9.240;2023-07-20T09:59:44;11.60;;;6.82;;
22851;SDS011;11592;45.460;9.240;2023-07-20T10:02:20;14.32;;;5.47;;
22851;SDS011;11592;45.460;9.240;2023-07-20T10:04:52;11.73;;;5.80;;
22851;SDS011;11592;45.460;9.240;2023-07-20T10:07:21;11.90;;;6.32;;
22851;SDS011;11592;45.460;9.240;2023-07-20T10:09:52;15.85;;;7.28;;
22851;SDS011;11592;45.460;9.240;2023-07-20T10:12:22;9.43;;;6.15;;
22851;SDS011;11592;45.460;9.240;2023-07-20T10:14:52;11.20;;;6.10;;
22851;SDS011;11592;45.460;9.240;2023-07-20T10:17:28;11.93;;;6.70;;
22851;SDS011;11592;45.460;9.240;2023-07-20T10:19:55;10.93;;;6.45;;
22851;SDS011;11592;45.460;9.240;2023-07-20T10:22:25;14.90;;;6.97;;
22851;SDS011;11592;45.460;9.240;2023-07-20T10:24:53;14.25;;;6.95;;
22851;SDS011;11592;45.460;9.240;2023-07-20T10:27:20;16.05;;;8.68;;
22851;SDS011;11592;45.460;9.240;2023-07-20T10:29:47;10.43;;;6.72;;
22851;SDS011;11592;45.460;9.240;2023-07-20T10:32:15;16.70;;;7.38;;
22851;SDS011;11592;45.460;9.240;2023-07-20T10:34:42;17.33;;;8.15;;
22851;SDS011;11592;45.460;9.240;2023-07-20T10:37:09;13.65;;;7.13;;
22851;SDS011;11592;45.460;9.240;2023-07-20T10:39:36;12.48;;;6.75;;
22851;SDS011;11592;45.460;9.240;2023-07-20T10:42:12;15.43;;;7.00;;
22851;SDS011;11592;45.460;9.240;2023-07-20T10:44:39;14.98;;;7.70;;
22851;SDS011;11592;45.460;9.240;2023-07-20T10:47:10;14.07;;;7.60;;
22851;SDS011;11592;45.460;9.240;2023-07-20T10:49:57;13.48;;;7.22;;
22851;SDS011;11592;45.460;9.240;2023-07-20T10:52:26;18.23;;;7.93;;
22851;SDS011;11592;45.460;9.240;2023-07-20T10:55:10;15.70;;;6.82;;
22851;SDS011;11592;45.460;9.240;2023-07-20T10:57:41;20.00;;;7.38;;
22851;SDS011;11592;45.460;9.240;2023-07-20T11:00:09;18.20;;;6.65;;
22851;SDS011;11592;45.460;9.240;2023-07-20T11:02:44;11.95;;;6.35;;
22851;SDS011;11592;45.460;9.240;2023-07-20T11:08:03;15.00;;;6.97;;
22851;SDS011;11592;45.460;9.240;2023-07-20T11:10:31;16.20;;;8.05;;
22851;SDS011;11592;45.460;9.240;2023-07-20T11:18:25;14.38;;;7.25;;
22851;SDS011;11592;45.460;9.240;2023-07-20T11:20:52;12.23;;;7.18;;
22851;SDS011;11592;45.460;9.240;2023-07-20T11:23:20;15.02;;;7.47;;
22851;SDS011;11592;45.460;9.240;2023-07-20T11:25:47;15.63;;;8.43;;
22851;SDS011;11592;45.460;9.240;2023-07-20T11:28:15;15.23;;;7.30;;
22851;SDS011;11592;45.460;9.240;2023-07-20T11:30:42;12.02;;;7.40;;
22851;SDS011;11592;45.460;9.240;2023-07-20T11:33:09;14.23;;;7.03;;
22851;SDS011;11592;45.460;9.240;2023-07-20T11:35:36;13.25;;;7.28;;
22851;SDS011;11592;45.460;9.240;2023-07-20T11:38:14;15.65;;;6.80;;
22851;SDS011;11592;45.460;9.240;2023-07-20T11:40:42;11.63;;;6.55;;
22851;SDS011;11592;45.460;9.240;2023-07-20T11:43:11;11.60;;;7.05;;
22851;SDS011;11592;45.460;9.240;2023-07-20T11:45:44;15.40;;;7.63;;
22851;SDS011;11592;45.460;9.240;2023-07-20T11:48:15;14.43;;;6.80;;
22851;SDS011;11592;45.460;9.240;2023-07-20T11:50:42;14.25;;;7.22;;
22851;SDS011;11592;45.460;9.240;2023-07-20T11:53:09;11.23;;;6.60;;
22851;SDS011;11592;45.460;9.240;2023-07-20T11:55:38;13.27;;;6.85;;
22851;SDS011;11592;45.460;9.240;2023-07-20T11:58:07;13.68;;;6.82;;
22851;SDS011;11592;45.460;9.240;2023-07-20T12:00:35;12.02;;;6.40;;
22851;SDS011;11592;45.460;9.240;2023-07-20T12:03:05;13.93;;;7.53;;
22851;SDS011;11592;45.460;9.240;2023-07-20T12:05:37;16.35;;;7.35;;
22851;SDS011;11592;45.460;9.240;2023-07-20T12:08:25;15.18;;;7.85;;
22851;SDS011;11592;45.460;9.240;2023-07-20T12:10:52;13.50;;;6.50;;
22851;SDS011;11592;45.460;9.240;2023-07-20T12:13:18;11.65;;;6.80;;
22851;SDS011;11592;45.460;9.240;2023-07-20T12:15:45;10.93;;;6.40;;
22851;SDS011;11592;45.460;9.240;2023-07-20T12:18:12;11.90;;;6.20;;
22851;SDS011;11592;45.460;9.240;2023-07-20T12:20:39;10.15;;;6.95;;
22851;SDS011;11592;45.460;9.240;2023-07-20T12:23:12;12.60;;;6.40;;
22851;SDS011;11592;45.460;9.240;2023-07-20T12:25:44;13.37;;;6.30;;
22851;SDS011;11592;45.460;9.240;2023-07-20T12:28:13;13.13;;;5.97;;
22851;SDS011;11592;45.460;9.240;2023-07-20T12:30:42;13.38;;;6.40;;
22851;SDS011;11592;45.460;9.240;2023-07-20T12:33:11;12.82;;;6.18;;
22851;SDS011;11592;45.460;9.240;2023-07-20T12:35:40;12.23;;;5.72;;
22851;SDS011;11592;45.460;9.240;2023-07-20T12:38:07;10.65;;;5.80;;
22851;SDS011;11592;45.460;9.240;2023-07-20T12:40:34;11.93;;;6.25;;
22851;SDS011;11592;45.460;9.240;2023-07-20T12:43:02;10.52;;;5.35;;
22851;SDS011;11592;45.460;9.240;2023-07-20T12:45:30;15.05;;;5.28;;
22851;SDS011;11592;45.460;9.240;2023-07-20T12:47:57;12.90;;;5.75;;
22851;SDS011;11592;45.460;9.240;2023-07-20T12:50:24;9.73;;;5.70;;
22851;SDS011;11592;45.460;9.240;2023-07-20T12:52:52;12.05;;;5.70;;
22851;SDS011;11592;45.460;9.240;2023-07-20T12:55:19;12.23;;;5.82;;
22851;SDS011;11592;45.460;9.240;2023-07-20T12:57:46;9.77;;;5.38;;
22851;SDS011;11592;45.460;9.240;2023-07-20T13:00:13;12.68;;;5.97;;
22851;SDS011;11592;45.460;9.240;2023-07-20T13:02:41;12.10;;;5.45;;
22851;SDS011;11592;45.460;9.240;2023-07-20T13:05:08;10.02;;;5.55;;
22851;SDS011;11592;45.460;9.240;2023-07-20T13:07:37;11.57;;;6.32;;
22851;SDS011;11592;45.460;9.240;2023-07-20T13:10:08;10.52;;;6.10;;
22851;SDS011;11592;45.460;9.240;2023-07-20T13:12:37;14.65;;;6.18;;
22851;SDS011;11592;45.460;9.240;2023-07-20T13:15:08;11.15;;;5.85;;
22851;SDS011;11592;45.460;9.240;2023-07-20T13:17:35;17.27;;;6.25;;
22851;SDS011;11592;45.460;9.240;2023-07-20T13:20:05;8.95;;;5.20;;
22851;SDS011;11592;45.460;9.240;2023-07-20T13:22:34;10.65;;;5.47;;
22851;SDS011;11592;45.460;9.240;2023-07-20T13:25:01;10.27;;;5.30;;
22851;SDS011;11592;45.460;9.240;2023-07-20T13:27:28;9.45;;;5.95;;
22851;SDS011;11592;45.460;9.240;2023-07-20T13:29:58;12.23;;;5.15;;
22851;SDS011;11592;45.460;9.240;2023-07-20T13:32:29;11.32;;;5.35;;
22851;SDS011;11592;45.460;9.240;2023-07-20T13:34:59;13.88;;;5.80;;
22851;SDS011;11592;45.460;9.240;2023-07-20T13:37:26;10.70;;;5.00;;
22851;SDS011;11592;45.460;9.240;2023-07-20T13:39:54;9.70;;;5.05;;
22851;SDS011;11592;45.460;9.240;2023-07-20T13:42:22;11.43;;;5.47;;
22851;SDS011;11592;45.460;9.240;2023-07-20T13:44:49;11.80;;;5.22;;
22851;SDS011;11592;45.460;9.240;2023-07-20T13:47:16;15.68;;;5.35;;
22851;SDS011;11592;45.460;9.240;2023-07-20T13:49:45;12.52;;;5.80;;
22851;SDS011;11592;45.460;9.240;2023-07-20T13:52:13;11.75;;;5.40;;
22851;SDS011;11592;45.460;9.240;2023-07-20T13:54:43;11.43;;;5.20;;
22851;SDS011;11592;45.460;9.240;2023-07-20T13:57:16;16.80;;;6.22;;
22851;SDS011;11592;45.460;9.240;2023-07-20T13:59:43;13.35;;;6.05;;
22851;SDS011;11592;45.460;9.240;2023-07-20T14:02:11;15.75;;;5.38;;
22851;SDS011;11592;45.460;9.240;2023-07-20T14:04:41;14.95;;;5.53;;
22851;SDS011;11592;45.460;9.240;2023-07-20T14:07:08;9.27;;;5.53;;
22851;SDS011;11592;45.460;9.240;2023-07-20T14:09:35;11.13;;;5.47;;
22851;SDS011;11592;45.460;9.240;2023-07-20T14:12:03;13.82;;;6.28;;
22851;SDS011;11592;45.460;9.240;2023-07-20T14:14:33;13.60;;;5.68;;
22851;SDS011;11592;45.460;9.240;2023-07-20T14:16:59;12.55;;;5.47;;
22851;SDS011;11592;45.460;9.240;2023-07-20T14:19:26;11.43;;;5.90;;
22851;SDS011;11592;45.460;9.240;2023-07-20T14:21:53;14.15;;;5.03;;
22851;SDS011;11592;45.460;9.240;2023-07-20T14:24:21;12.00;;;5.57;;
22851;SDS011;11592;45.460;9.240;2023-07-20T14:26:48;14.43;;;5.90;;
22851;SDS011;11592;45.460;9.240;2023-07-20T14:29:17;11.27;;;5.47;;
22851;SDS011;11592;45.460;9.240;2023-07-20T14:31:45;11.93;;;5.45;;
22851;SDS011;11592;45.460;9.240;2023-07-20T14:34:15;14.52;;;6.07;;
22851;SDS011;11592;45.460;9.240;2023-07-20T14:36:45;9.63;;;5.13;;
22851;SDS011;11592;45.460;9.240;2023-07-20T14:39:12;9.63;;;5.18;;
22851;SDS011;11592;45.460;9.240;2023-07-20T14:41:39;11.48;;;4.88;;
22851;SDS011;11592;45.460;9.240;2023-07-20T14:44:05;13.68;;;5.25;;
22851;SDS011;11592;45.460;9.240;2023-07-20T14:46:32;11.60;;;4.95;;
22851;SDS011;11592;45.460;9.240;2023-07-20T14:48:59;16.10;;;5.00;;
22851;SDS011;11592;45.460;9.240;2023-07-20T14:51:26;11.68;;;5.45;;
22851;SDS011;11592;45.460;9.240;2023-07-20T14:54:00;9.68;;;4.90;;
22851;SDS011;11592;45.460;9.240;2023-07-20T14:56:28;11.77;;;5.18;;
22851;SDS011;11592;45.460;9.240;2023-07-20T14:58:55;9.70;;;5.40;;
22851;SDS011;11592;45.460;9.240;2023-07-20T15:01:24;10.55;;;5.45;;
22851;SDS011;11592;45.460;9.240;2023-07-20T15:03:51;10.75;;;5.10;;
22851;SDS011;11592;45.460;9.240;2023-07-20T15:06:23;10.27;;;4.85;;